Flight Track Log - Related Links

Times and Time Zones

All times are in EDT time to prevent confusion due to time zone crossing. See the VNR131 flight status page for this flight to view local times or setup timezone preferences in your user account.

Time Position Orientation Groundspeed Altitude Reporting Facility
EDT Latitude Longitude Course Direction KTS MPH feet Rate Location/Type
Sat 06:11:30 PM 40.8333 -74.1000 252° West 163 188 1,100  Level New York TRACON
Sat 06:12:30 PM 40.8167 -74.1667 288° West 192 221 1,700 1,300 Climbing New York TRACON
Sat 06:13:30 PM 40.8333 -74.2333 270° West 205 236 3,700 1,900 Climbing New York TRACON
Sat 06:14:30 PM 40.8333 -74.3167 328° Northwest 205 236 5,500 1,719 Climbing New York TRACON
Sat 06:16:49 PM 40.9350 -74.3994 342° North 213 245 9,400 1,606 Climbing New York Center
Sat 06:17:48 PM 40.9925 -74.4244 348° North 231 266 10,800 1,068 Climbing New York Center
Sat 06:18:47 PM 41.0669 -74.4450 351° North 236 272 11,500 550 Climbing New York Center
Sat 06:19:48 PM 41.1353 -74.4597 341° North 263 303 11,900 347 Climbing New York Center
Sat 06:20:48 PM 41.2172 -74.4975 340° North 283 326 12,200  Climbing New York Center
Sat 06:21:49 PM 41.2831 -74.5286 340° North 278 320 11,900 -153 Descending New York Center
Sat 06:22:46 PM 41.3631 -74.5664 329° Northwest 283 326 11,900  Level New York Center
Sat 06:23:47 PM 41.4178 -74.6108 303° West 263 303 11,900  Level New York Center
Sat 06:24:48 PM 41.4608 -74.6992 304° West 246 283 11,900 1,041 Level New York Center
Sat 06:25:48 PM 41.4978 -74.7733 304° West 270 311 14,000 1,000 Climbing New York Center
Sat 06:26:48 PM 41.5406 -74.8592 312° West 265 305 13,900 857 Descending New York Center
Sat 06:27:47 PM 41.5922 -74.9369 330° Northwest 270 311 15,700 741 Climbing New York Center
Sat 06:29:30 PM 41.7100 -75.0292 329° Northwest 288 331 15,900 37 Climbing Boston Center
Sat 06:30:30 PM 41.7797 -75.0850 328° Northwest 309 356 15,800  Descending Boston Center
Sat 06:31:30 PM 41.8533 -75.1467 329° Northwest 315 362 15,900 50 Climbing Boston Center
Sat 06:32:30 PM 41.9308 -75.2083 328° Northwest 315 362 15,900  Level Boston Center
Sat 06:33:30 PM 42.0086 -75.2733 329° Northwest 315 362 15,900 50 Level Boston Center
Sat 06:34:30 PM 42.0822 -75.3328 334° Northwest 315 362 16,000 50 Climbing Boston Center
Sat 06:35:30 PM 42.1478 -75.3750 332° Northwest 297 342 16,000  Level Boston Center
Sat 06:36:30 PM 42.2153 -75.4231 331° Northwest 276 318 16,000 58 Level Boston Center
Sat 06:37:14 PM 42.2744 -75.4678 334° Northwest 298 343 16,100 -150 Climbing Boston Center
Sat 06:38:30 PM 42.3647 -75.5283 332° Northwest 291 335 15,700 -529 Descending Boston Center
Sat 06:39:30 PM 42.4361 -75.5797 332° Northwest 296 341 14,900 -900 Descending Boston Center
Sat 06:40:30 PM 42.5078 -75.6314 339° North 296 341 13,900 550 Descending Boston Center
Sat 06:41:30 PM 42.5858 -75.6719 340° North 296 341 16,000 -1,900 Climbing Boston Center
Sat 06:42:30 PM 42.6681 -75.7131 337° Northwest 301 346 10,100 -3,864 Descending Boston Center
Sat 06:43:42 PM 42.7644 -75.7692 340° North 288 331 7,500 -1,950 Descending Boston Center
Sat 06:44:30 PM 42.8158 -75.7944 342° North 294 338 6,200 -1,587 Descending Boston Center
Sat 06:45:43 PM 42.8981 -75.8300 350° North 245 282 4,300 -992 Descending Boston Center
Sat 06:46:37 PM 42.9581 -75.8447 348° North 226 260 4,100 -617 Descending Boston Center
Sat 06:47:30 PM 43.0078 -75.8589 345° North 223 257 3,200 -478 Descending Boston Center
Sat 06:48:30 PM 43.0614 -75.8789 341° North 203 234 3,200  Level Boston Center
Sat 06:49:30 PM 43.1106 -75.9017 278° West 198 228 3,200 -350 Level Boston Center
Sat 06:50:30 PM 43.1169 -75.9647 264° West 153 176 2,500 -750 Descending Boston Center
Sat 06:51:30 PM 43.1133 -76.0156 268° West 139 160 1,700 -768 Descending Boston Center
Sat 06:52:35 PM 43.1117 -76.0725 269° West 124 143 900 -738 Descending Boston Center
Sat 07:00:15 PM 43.0983 -76.8407 90° East  Level Estimated
Sat 07:01:15 PM 43.1000 -76.1000 338° Northwest  Level FlightAware Approximate
Sat 07:02:15 PM 43.1676 -76.1382 158° South  Level Estimated
Sat 07:03:15 PM 43.1000 -76.1000 338° Northwest  Level FlightAware Approximate
Sat 07:04:15 PM 43.1676 -76.1382 338° Northwest  Level Estimated

Login

Don't have an account? Register now (free) for customized features, flight alerts, and more!